Time;durP1;ratioP1;P1;durP2;ratioP2;P2;SDS_P1;SDS_P2;PMS_P1;PMS_P2;Temp;Humidity;BMP_temperature;BMP_pressure;BME280_temperature;BME280_humidity;BME280_pressure;Samples;Min_cycle;Max_cycle;Signal;HPM_P1;HPM_P2
2022/07/02 00:01:57;;;;;;;14.85;13.75;;;;;;;22.52;54.23;100682.31;5029316;28;97052;-80
2022/07/02 00:04:26;;;;;;;15.18;13.65;;;;;;;22.49;54.10;100690.59;5013078;28;96840;-78
2022/07/02 00:06:52;;;;;;;14.43;13.52;;;;;;;22.40;54.24;100683.25;5013689;28;97322;-78
2022/07/02 00:09:18;;;;;;;14.13;13.23;;;;;;;22.34;54.46;100674.75;5030292;28;96766;-82
2022/07/02 00:11:45;;;;;;;13.98;12.80;;;;;;;22.35;54.68;100676.44;5007821;28;97476;-78
2022/07/02 00:14:10;;;;;;;14.52;13.63;;;;;;;22.35;54.71;100687.16;4991130;28;96975;-78
2022/07/02 00:16:37;;;;;;;14.50;13.45;;;;;;;22.35;54.42;100684.47;5020586;28;97931;-78
2022/07/02 00:19:03;;;;;;;13.85;12.95;;;;;;;22.23;54.67;100685.44;5013106;28;97873;-80
2022/07/02 00:21:29;;;;;;;14.65;13.55;;;;;;;22.33;54.88;100699.78;5012628;28;96904;-78
2022/07/02 00:23:54;;;;;;;13.80;12.90;;;;;;;22.30;54.82;100692.00;5012763;28;97066;-78
2022/07/02 00:26:28;;;;;;;14.70;13.60;;;;;;;22.25;54.80;100698.66;5012321;28;100922;-82
2022/07/02 00:29:04;;;;;;;14.68;13.38;;;;;;;22.20;54.88;100692.84;5008324;28;99616;-78
2022/07/02 00:31:29;;;;;;;14.63;13.25;;;;;;;22.25;55.01;100698.66;5011327;28;97256;-78
2022/07/02 00:33:56;;;;;;;14.10;13.10;;;;;;;22.23;55.03;100704.16;5012464;28;97721;-78
2022/07/02 00:36:22;;;;;;;14.00;13.02;;;;;;;22.23;55.00;100708.66;5012981;28;97513;-78
2022/07/02 00:38:50;;;;;;;13.80;12.90;;;;;;;22.29;54.99;100708.16;4996039;28;101342;-78
2022/07/02 00:41:17;;;;;;;13.93;13.02;;;;;;;22.26;55.04;100706.59;5012824;28;97275;-79
2022/07/02 00:43:45;;;;;;;13.98;13.02;;;;;;;22.17;55.19;100706.41;5012320;28;97659;-79
2022/07/02 00:46:11;;;;;;;13.85;13.05;;;;;;;22.20;55.21;100717.75;5019379;28;98190;-78
2022/07/02 00:48:37;;;;;;;14.85;13.50;;;;;;;22.21;55.10;100724.78;5011474;28;97360;-78
2022/07/02 00:51:03;;;;;;;14.75;13.85;;;;;;;22.20;54.88;100720.44;5012449;28;96979;-79
2022/07/02 00:53:31;;;;;;;14.77;13.63;;;;;;;22.09;55.01;100698.97;5008691;28;97176;-78
2022/07/02 00:55:57;;;;;;;14.25;13.25;;;;;;;22.20;55.23;100717.75;5006001;27;97661;-79
2022/07/02 00:58:24;;;;;;;14.02;13.13;;;;;;;22.17;55.16;100722.47;4988791;28;101317;-78
2022/07/02 01:00:49;;;;;;;13.05;12.27;;;;;;;22.15;55.14;100711.88;5012837;28;96978;-78
2022/07/02 01:03:20;;;;;;;13.90;13.10;;;;;;;22.19;55.09;100717.84;5010788;28;97201;-78
2022/07/02 01:05:48;;;;;;;13.63;12.73;;;;;;;22.16;55.25;100726.94;5028788;28;97886;-78
2022/07/02 01:11:17;;;;;;;14.05;13.13;;;;;;;22.08;55.52;100730.19;4931128;28;97026;-78
2022/07/02 01:13:43;;;;;;;14.38;13.38;;;;;;;22.03;55.71;100727.00;4989921;28;97182;-78
2022/07/02 01:16:08;;;;;;;13.90;13.00;;;;;;;22.06;55.81;100725.94;5011214;28;101287;-78
2022/07/02 01:18:36;;;;;;;15.10;14.10;;;;;;;22.04;55.82;100726.03;5010473;28;97443;-78
2022/07/02 01:21:01;;;;;;;14.55;13.70;;;;;;;22.04;55.88;100728.72;5007713;28;96982;-78
2022/07/02 01:23:27;;;;;;;14.68;13.70;;;;;;;21.98;55.92;100733.69;4994729;28;97336;-78
2022/07/02 01:25:53;;;;;;;14.60;13.45;;;;;;;22.03;55.93;100745.72;5026018;28;97450;-78
2022/07/02 01:28:19;;;;;;;13.88;12.98;;;;;;;21.84;56.05;100730.19;4995327;28;101331;-77
2022/07/02 01:30:46;;;;;;;14.73;13.73;;;;;;;21.99;56.19;100754.97;5011486;28;96826;-78
2022/07/02 01:33:11;;;;;;;14.40;13.40;;;;;;;21.96;56.22;100752.47;5028877;28;97145;-80
2022/07/02 01:35:37;;;;;;;14.48;13.40;;;;;;;21.99;56.00;100760.31;5008265;28;101173;-78
2022/07/02 01:38:03;;;;;;;14.48;13.48;;;;;;;21.99;56.00;100764.75;5011465;28;97469;-78
2022/07/02 01:40:28;;;;;;;14.95;14.05;;;;;;;21.95;56.12;100763.31;4998636;28;97734;-78
2022/07/02 01:42:54;;;;;;;14.27;13.27;;;;;;;21.95;56.14;100777.50;4990999;28;97013;-78
2022/07/02 01:45:19;;;;;;;13.70;12.88;;;;;;;21.96;56.18;100781.03;4994983;28;101327;-78
2022/07/02 01:47:45;;;;;;;14.93;13.75;;;;;;;21.91;56.61;100800.09;5008407;28;97464;-78
2022/07/02 01:50:11;;;;;;;13.88;13.07;;;;;;;21.88;56.17;100800.34;5029306;28;96743;-77
2022/07/02 01:52:36;;;;;;;14.60;13.70;;;;;;;21.83;56.26;100803.31;4992746;28;97487;-78
2022/07/02 01:55:03;;;;;;;14.43;13.40;;;;;;;21.81;56.20;100796.38;4994279;28;101339;-78
2022/07/02 01:57:30;;;;;;;14.65;13.57;;;;;;;21.84;56.21;100807.69;5011650;28;98416;-79
2022/07/02 01:59:56;;;;;;;14.38;13.13;;;;;;;21.84;56.36;100804.19;4996784;28;97125;-78
2022/07/02 02:02:22;;;;;;;14.10;13.30;;;;;;;21.81;56.27;100804.41;5008221;28;96870;-78
2022/07/02 02:04:50;;;;;;;15.15;13.90;;;;;;;21.75;56.31;100812.88;4989053;28;101616;-78
2022/07/02 02:07:16;;;;;;;14.90;13.80;;;;;;;21.75;56.15;100829.75;5010145;28;101237;-78
2022/07/02 02:09:41;;;;;;;14.77;13.73;;;;;;;21.77;56.07;100835.00;4999360;28;97170;-78
2022/07/02 02:12:07;;;;;;;15.30;14.07;;;;;;;21.70;56.46;100832.78;4991026;28;97075;-78
2022/07/02 02:14:33;;;;;;;15.63;14.48;;;;;;;21.70;56.30;100832.78;4983942;28;101894;-78
2022/07/02 02:16:59;;;;;;;15.00;14.00;;;;;;;21.72;56.22;100831.81;4994799;28;101167;-77
2022/07/02 02:19:24;;;;;;;14.77;13.68;;;;;;;21.73;56.23;100833.50;5027862;28;96777;-81
2022/07/02 02:21:50;;;;;;;14.50;13.40;;;;;;;21.68;56.06;100833.84;5012682;28;96902;-78
2022/07/02 02:24:15;;;;;;;14.15;13.25;;;;;;;21.62;56.31;100835.13;5013847;28;98057;-78
2022/07/02 02:26:41;;;;;;;15.13;14.10;;;;;;;21.68;56.20;100840.03;5006719;28;102078;-79
2022/07/02 02:29:07;;;;;;;15.30;14.23;;;;;;;21.68;56.14;100849.88;5030362;28;96709;-78
2022/07/02 02:31:32;;;;;;;15.65;14.43;;;;;;;21.59;56.25;100838.03;5030990;28;97711;-78
2022/07/02 02:33:58;;;;;;;16.20;14.63;;;;;;;21.63;56.27;100850.19;5025808;28;101102;-78
2022/07/02 02:36:24;;;;;;;15.93;14.40;;;;;;;21.56;56.30;100848.94;5015046;28;101346;-77
2022/07/02 02:38:49;;;;;;;15.68;14.57;;;;;;;21.55;56.38;100849.88;5014516;28;96672;-78
2022/07/02 02:41:15;;;;;;;15.95;14.75;;;;;;;21.51;56.35;100835.06;5029973;28;97104;-80
2022/07/02 02:43:41;;;;;;;14.93;14.02;;;;;;;21.58;56.27;100848.81;5026995;28;98228;-79
2022/07/02 02:46:06;;;;;;;16.60;15.20;;;;;;;21.52;56.43;100844.75;5010938;28;101398;-78
2022/07/02 02:48:35;;;;;;;16.08;14.90;;;;;;;21.54;56.49;100839.31;4997519;28;96830;-78
2022/07/02 02:51:01;;;;;;;16.95;15.32;;;;;;;21.51;56.15;100842.22;4998061;28;96924;-78
2022/07/02 02:53:26;;;;;;;16.85;15.40;;;;;;;21.51;56.43;100851.09;4996792;28;101461;-83
2022/07/02 02:55:52;;;;;;;17.52;16.23;;;;;;;21.43;56.65;100845.44;5023306;28;97911;-78
2022/07/02 02:58:18;;;;;;;17.60;16.35;;;;;;;21.47;56.68;100844.25;4990063;28;97939;-78
2022/07/02 03:00:44;;;;;;;22.63;17.27;;;;;;;21.41;56.48;100832.19;5002752;28;96833;-79
2022/07/02 03:03:09;;;;;;;16.27;15.13;;;;;;;21.44;56.74;100850.69;5029217;28;98586;-78
2022/07/02 03:05:35;;;;;;;16.92;15.52;;;;;;;21.41;56.72;100839.34;5017869;28;101400;-78
2022/07/02 03:08:00;;;;;;;18.05;16.60;;;;;;;21.44;56.69;100844.47;5007188;28;96803;-78
2022/07/02 03:10:26;;;;;;;17.60;16.38;;;;;;;21.31;56.77;100831.09;5014542;28;98582;-78
2022/07/02 03:12:51;;;;;;;18.60;16.63;;;;;;;21.30;57.00;100836.56;5031666;28;98066;-78
2022/07/02 03:15:17;;;;;;;17.10;15.80;;;;;;;21.33;56.97;100839.88;5025268;28;97513;-78
2022/07/02 03:17:42;;;;;;;17.83;16.20;;;;;;;21.31;56.97;100846.28;4994861;28;97244;-78
2022/07/02 03:20:08;;;;;;;17.15;15.88;;;;;;;21.34;56.72;100843.38;4993337;28;97812;-79
2022/07/02 03:22:34;;;;;;;17.70;16.00;;;;;;;21.27;56.71;100842.97;5012276;28;101321;-78
2022/07/02 03:24:59;;;;;;;17.70;16.40;;;;;;;21.25;57.03;100848.41;5013457;28;101498;-78
2022/07/02 03:27:25;;;;;;;16.95;15.55;;;;;;;21.22;57.07;100853.13;4992082;28;96785;-78
2022/07/02 03:29:51;;;;;;;17.80;16.40;;;;;;;21.22;57.30;100855.78;5017441;28;97379;-78
2022/07/02 03:32:17;;;;;;;18.05;16.50;;;;;;;21.17;57.31;100844.56;5003898;28;97966;-79
2022/07/02 03:34:43;;;;;;;18.55;16.80;;;;;;;21.17;57.38;100849.91;5019241;27;98080;-79
2022/07/02 03:37:08;;;;;;;17.38;16.17;;;;;;;21.17;57.43;100850.75;5005083;28;97090;-78
2022/07/02 03:39:34;;;;;;;17.38;15.73;;;;;;;21.16;57.44;100848.22;5010262;28;97254;-78
2022/07/02 03:41:59;;;;;;;25.52;16.85;;;;;;;21.19;57.71;100853.34;4995390;28;100842;-78
2022/07/02 03:44:25;;;;;;;17.73;16.50;;;;;;;21.13;57.61;100862.63;5024844;28;97425;-78
2022/07/02 03:46:50;;;;;;;18.55;16.92;;;;;;;21.08;57.46;100862.06;4996838;28;96833;-79
2022/07/02 03:49:16;;;;;;;17.92;16.45;;;;;;;21.01;57.49;100864.31;5005096;28;97158;-78
2022/07/02 03:51:41;;;;;;;20.67;18.45;;;;;;;21.10;57.36;100873.50;5008944;28;101322;-77
2022/07/02 03:54:07;;;;;;;19.17;17.52;;;;;;;20.99;57.24;100857.38;5011620;28;97461;-78
2022/07/02 03:56:32;;;;;;;18.15;16.95;;;;;;;21.07;57.36;100873.72;4994928;28;96849;-78
2022/07/02 03:58:58;;;;;;;18.38;17.08;;;;;;;21.07;57.59;100868.38;5029824;28;96738;-78
2022/07/02 04:01:23;;;;;;;18.85;17.27;;;;;;;21.05;57.18;100862.28;5012014;28;101189;-78
2022/07/02 04:03:51;;;;;;;19.08;17.38;;;;;;;21.04;57.31;100865.94;5009477;28;101149;-78
2022/07/02 04:06:17;;;;;;;17.88;16.55;;;;;;;21.06;57.02;100865.81;4993304;28;97601;-77
2022/07/02 04:08:42;;;;;;;19.25;17.30;;;;;;;20.89;57.09;100846.50;5012891;28;97173;-78
2022/07/02 04:11:08;;;;;;;19.63;17.77;;;;;;;20.97;57.20;100861.97;5013660;28;97791;-78
2022/07/02 04:13:33;;;;;;;18.02;16.63;;;;;;;21.04;57.17;100873.94;5029338;28;101750;-79
2022/07/02 04:16:01;;;;;;;17.95;16.63;;;;;;;21.05;57.37;100886.31;5013772;28;97275;-78
2022/07/02 04:18:27;;;;;;;19.13;17.25;;;;;;;21.03;57.33;100888.22;5022431;28;97035;-78
2022/07/02 04:20:53;;;;;;;19.48;17.95;;;;;;;20.97;57.25;100894.88;5008728;28;100941;-77
2022/07/02 04:23:18;;;;;;;19.88;17.88;;;;;;;20.91;57.32;100881.06;5008520;28;101043;-78
2022/07/02 04:25:44;;;;;;;19.35;17.58;;;;;;;20.91;57.50;100887.25;5019373;28;97882;-78
2022/07/02 04:28:10;;;;;;;19.30;17.67;;;;;;;20.91;57.43;100894.41;5010801;28;97471;-78
2022/07/02 04:30:36;;;;;;;19.85;17.85;;;;;;;20.94;57.91;100911.09;5011636;28;101403;-78
2022/07/02 04:33:02;;;;;;;18.10;16.60;;;;;;;20.97;57.63;100913.53;5019094;28;100717;-79
2022/07/02 04:35:27;;;;;;;18.48;16.98;;;;;;;20.94;57.76;100907.53;5003604;28;96832;-77
2022/07/02 04:37:54;;;;;;;18.52;17.13;;;;;;;20.91;57.50;100913.94;4993030;28;97186;-77
2022/07/02 04:40:19;;;;;;;19.83;18.17;;;;;;;20.96;57.31;100930.50;5003327;28;97688;-78
2022/07/02 04:42:45;;;;;;;20.17;18.38;;;;;;;20.82;57.64;100932.38;4994021;28;101668;-77
2022/07/02 04:45:10;;;;;;;18.45;16.95;;;;;;;20.85;57.84;100934.84;5013229;28;97210;-78
2022/07/02 04:47:36;;;;;;;19.08;17.08;;;;;;;20.86;59.19;100934.75;4996397;28;96913;-81
2022/07/02 04:50:01;;;;;;;20.55;18.55;;;;;;;20.69;59.42;100908.38;4985927;28;101453;-85
2022/07/02 04:52:27;;;;;;;18.67;17.05;;;;;;;20.78;60.52;100932.59;4996033;28;100727;-82
2022/07/02 04:54:52;;;;;;;19.58;18.00;;;;;;;20.87;60.08;100952.47;4990546;28;97433;-83
2022/07/02 04:57:18;;;;;;;21.38;19.63;;;;;;;20.80;59.11;100953.84;5002955;28;96878;-82
2022/07/02 04:59:44;;;;;;;19.92;17.98;;;;;;;20.80;59.14;100953.84;5006031;28;101392;-82
2022/07/02 05:02:11;;;;;;;19.95;18.45;;;;;;;20.73;59.27;100956.06;5012115;28;100085;-83
2022/07/02 05:04:36;;;;;;;19.05;17.58;;;;;;;20.62;59.07;100942.56;5010630;28;96822;-81
2022/07/02 05:07:02;;;;;;;19.48;17.92;;;;;;;20.77;59.48;100959.41;5009668;28;96875;-82
2022/07/02 05:09:27;;;;;;;19.50;18.10;;;;;;;20.73;59.89;100971.19;5010203;28;101543;-82
2022/07/02 05:11:53;;;;;;;19.75;18.25;;;;;;;20.70;60.13;100969.59;5021446;28;101215;-81
2022/07/02 05:14:19;;;;;;;19.30;17.90;;;;;;;20.68;59.84;100973.31;4993036;28;97076;-82
2022/07/02 05:16:44;;;;;;;19.98;18.25;;;;;;;20.71;59.96;100982.00;5010288;28;97115;-82
2022/07/02 05:19:10;;;;;;;19.50;18.00;;;;;;;20.51;59.67;100947.75;5025925;28;98009;-81
2022/07/02 05:21:37;;;;;;;20.42;18.90;;;;;;;20.65;59.66;100981.53;5020633;28;97856;-81
2022/07/02 05:24:03;;;;;;;20.52;18.65;;;;;;;20.62;59.65;100995.91;5010506;28;96790;-82
2022/07/02 05:26:29;;;;;;;19.67;17.92;;;;;;;20.64;59.48;101001.16;5009239;28;97359;-82
2022/07/02 05:28:54;;;;;;;18.77;17.05;;;;;;;20.66;59.99;101005.44;5020165;28;97939;-82
2022/07/02 05:31:20;;;;;;;19.88;18.38;;;;;;;20.70;59.74;101011.41;5022501;28;97768;-82
2022/07/02 05:33:45;;;;;;;18.67;17.38;;;;;;;20.72;59.72;101009.53;5005535;28;97193;-82
2022/07/02 05:36:11;;;;;;;18.80;17.30;;;;;;;20.69;59.71;101007.06;5012367;28;97078;-82
2022/07/02 05:38:36;;;;;;;18.83;17.40;;;;;;;20.70;59.66;101008.75;4993521;28;101683;-81
2022/07/02 05:41:02;;;;;;;19.58;17.98;;;;;;;20.78;59.50;101011.78;5022676;28;98291;-82
2022/07/02 05:43:27;;;;;;;18.85;17.27;;;;;;;20.87;59.44;101018.31;5007704;28;97288;-82
2022/07/02 05:45:53;;;;;;;18.85;17.33;;;;;;;20.87;58.95;101013.00;5009581;28;98359;-82
2022/07/02 05:48:18;;;;;;;18.13;16.73;;;;;;;20.95;58.67;101022.19;5005162;28;101723;-82
2022/07/02 05:50:44;;;;;;;16.65;15.52;;;;;;;20.94;58.91;101025.84;5010533;28;101463;-81
2022/07/02 05:53:09;;;;;;;17.20;15.80;;;;;;;21.00;58.38;101021.88;5011521;28;96765;-82
2022/07/02 05:55:35;;;;;;;18.20;16.52;;;;;;;21.07;58.52;101033.00;5019425;28;96725;-82
2022/07/02 05:58:00;;;;;;;18.08;16.38;;;;;;;21.12;58.30;101030.88;4973294;28;101464;-82
2022/07/02 06:00:26;;;;;;;18.38;16.92;;;;;;;21.14;58.20;101018.28;5000731;28;100818;-81
2022/07/02 06:02:51;;;;;;;17.70;16.40;;;;;;;21.31;57.72;101038.50;5017507;28;97146;-81
2022/07/02 06:08:01;;;;;;;17.23;15.98;;;;;;;21.53;56.36;101029.94;5019469;28;98165;-82
2022/07/02 06:10:27;;;;;;;17.88;16.27;;;;;;;21.54;56.72;101018.28;5027806;28;97398;-82
2022/07/02 06:12:53;;;;;;;18.75;17.17;;;;;;;21.70;56.13;101034.97;5006944;28;97235;-82
2022/07/02 06:15:19;;;;;;;17.75;16.65;;;;;;;21.69;56.17;101033.25;4990499;28;97175;-82
2022/07/02 06:17:45;;;;;;;17.08;15.82;;;;;;;21.89;55.32;101038.03;5023113;28;97332;-82
2022/07/02 06:20:12;;;;;;;18.05;16.48;;;;;;;21.98;55.02;101033.88;4992486;28;101522;-82
2022/07/02 06:22:37;;;;;;;16.13;14.90;;;;;;;22.10;54.63;101033.00;5027433;28;97196;-81
2022/07/02 06:25:04;;;;;;;16.63;15.43;;;;;;;22.14;54.47;101031.84;4991650;28;97368;-81
2022/07/02 06:27:36;;;;;;;16.13;15.02;;;;;;;22.34;54.33;101045.59;5007574;28;99360;-81
2022/07/02 06:30:03;;;;;;;15.77;14.48;;;;;;;22.48;53.70;101040.13;5003290;28;101979;-82
2022/07/02 06:32:29;;;;;;;15.75;14.60;;;;;;;22.63;53.33;101034.59;5006935;28;97616;-82
2022/07/02 06:34:55;;;;;;;16.13;15.13;;;;;;;22.90;52.64;101045.97;5006579;28;99734;-81
2022/07/02 06:37:21;;;;;;;16.52;15.43;;;;;;;23.18;51.82;101033.19;4993186;28;100957;-82
2022/07/02 06:39:46;;;;;;;16.65;15.40;;;;;;;23.40;51.60;101035.97;5026208;28;101678;-82
2022/07/02 06:42:26;;;;;;;16.55;15.20;;;;;;;24.65;49.18;101036.91;4993508;28;97423;-81
2022/07/02 06:44:55;;;;;;;16.80;15.32;;;;;;;24.69;47.97;101046.41;5003005;28;96993;-82
2022/07/02 06:47:21;;;;;;;17.00;15.90;;;;;;;24.78;47.75;101046.50;4991531;28;101529;-82
2022/07/02 06:49:47;;;;;;;16.83;15.63;;;;;;;25.25;46.72;101038.19;5009751;28;101127;-83
2022/07/02 06:52:12;;;;;;;17.10;15.93;;;;;;;26.79;43.88;101031.84;4988186;28;97885;-82
2022/07/02 06:54:38;;;;;;;20.33;18.40;;;;;;;29.32;39.82;101025.44;5004147;28;97568;-84
2022/07/02 06:57:04;;;;;;;13.40;12.60;;;;;;;31.05;36.55;101036.91;4992737;28;100806;-84
2022/07/02 06:59:30;;;;;;;14.13;13.00;;;;;;;32.02;34.81;101009.84;5006373;28;98553;-82
2022/07/02 07:01:56;;;;;;;14.13;12.90;;;;;;;33.08;33.39;101022.03;5005583;28;97351;-82
2022/07/02 07:04:21;;;;;;;16.15;15.18;;;;;;;32.22;33.51;100996.69;4998700;28;96952;-83
2022/07/02 07:06:56;;;;;;;15.32;14.32;;;;;;;33.92;31.17;101019.16;5002779;28;97571;-82
2022/07/02 07:09:22;;;;;;;15.95;14.95;;;;;;;33.26;31.82;101030.69;4984135;28;101119;-81
2022/07/02 07:11:48;;;;;;;17.10;16.10;;;;;;;34.69;29.20;101024.13;4991182;28;97848;-82
2022/07/02 07:14:14;;;;;;;15.93;14.93;;;;;;;32.28;31.99;101017.72;5010108;28;97131;-83
2022/07/02 07:16:39;;;;;;;16.48;15.45;;;;;;;31.33;33.37;101028.47;5009068;28;100808;-83
2022/07/02 07:19:05;;;;;;;13.25;12.50;;;;;;;32.18;31.46;101028.81;5018984;28;101431;-82
2022/07/02 07:21:34;;;;;;;15.05;14.02;;;;;;;34.42;29.48;101028.44;5009283;28;97179;-83
2022/07/02 07:24:00;;;;;;;15.77;14.65;;;;;;;35.69;28.21;101012.22;4989937;28;97362;-84
2022/07/02 07:26:25;;;;;;;15.45;14.45;;;;;;;36.57;26.85;101023.41;5007518;28;100030;-83
2022/07/02 07:28:51;;;;;;;14.20;13.40;;;;;;;37.12;26.59;101020.53;4991997;28;100762;-82
2022/07/02 07:31:20;;;;;;;15.23;14.23;;;;;;;35.08;28.37;101014.66;5009783;28;97362;-82
2022/07/02 07:33:52;;;;;;;15.27;14.27;;;;;;;35.00;28.48;101022.97;5026895;28;96843;-82
2022/07/02 07:36:18;;;;;;;15.30;14.30;;;;;;;33.28;30.22;101030.50;5011798;28;102165;-82
2022/07/02 07:38:47;;;;;;;14.98;14.00;;;;;;;34.08;29.56;101023.59;5002640;28;101275;-82
2022/07/02 07:41:12;;;;;;;15.18;14.20;;;;;;;32.68;31.32;101037.56;4994911;28;96979;-81
2022/07/02 07:43:38;;;;;;;14.70;13.57;;;;;;;32.25;31.76;101043.34;5006246;28;96951;-80
2022/07/02 07:46:03;;;;;;;15.50;14.15;;;;;;;34.78;28.81;101038.50;5027780;28;101194;-83
2022/07/02 07:48:29;;;;;;;15.32;14.32;;;;;;;36.07;27.54;101041.88;5013422;28;101543;-81
2022/07/02 07:50:55;;;;;;;14.27;13.27;;;;;;;35.82;27.53;101041.50;5030518;27;97030;-82
2022/07/02 07:53:20;;;;;;;15.23;14.20;;;;;;;36.96;26.12;101038.19;5030330;28;97351;-83
2022/07/02 07:55:48;;;;;;;15.25;14.25;;;;;;;35.17;27.77;101035.34;5023977;28;100237;-82
2022/07/02 07:58:17;;;;;;;16.27;14.68;;;;;;;34.08;28.82;101050.81;5013759;28;100998;-84
2022/07/02 08:00:44;;;;;;;14.60;13.70;;;;;;;34.72;29.13;101056.47;5003758;28;97429;-80
2022/07/02 08:03:10;;;;;;;14.98;13.90;;;;;;;36.08;26.76;101049.03;5012734;28;96898;-81
2022/07/02 08:05:36;;;;;;;14.57;13.60;;;;;;;37.45;25.74;101042.44;4996157;28;101247;-83
2022/07/02 08:08:02;;;;;;;14.35;13.40;;;;;;;36.11;26.69;101053.25;5029881;28;97895;-84
2022/07/02 08:10:27;;;;;;;13.82;12.95;;;;;;;34.06;28.93;101056.44;5012583;28;96753;-83
2022/07/02 08:12:54;;;;;;;14.77;13.85;;;;;;;33.95;29.22;101052.31;5007772;28;97599;-83
2022/07/02 08:15:19;;;;;;;15.27;14.32;;;;;;;35.37;27.79;101065.50;5009132;28;101214;-86
2022/07/02 08:17:45;;;;;;;15.68;14.70;;;;;;;36.74;25.59;101058.53;5005398;28;99949;-84
2022/07/02 08:20:11;;;;;;;14.35;13.45;;;;;;;37.48;24.95;101074.06;4992531;28;97399;-82
2022/07/02 08:22:38;;;;;;;14.27;13.30;;;;;;;38.55;23.89;101056.31;5012753;28;97409;-83
2022/07/02 08:25:05;;;;;;;14.95;14.05;;;;;;;38.40;23.88;101061.22;5026871;28;98236;-84
2022/07/02 08:27:31;;;;;;;15.10;14.18;;;;;;;36.15;25.76;101065.47;5009488;28;97581;-84
2022/07/02 08:29:56;;;;;;;15.30;14.40;;;;;;;37.69;24.62;101060.13;4990437;28;97475;-89
2022/07/02 08:32:22;;;;;;;15.32;14.43;;;;;;;36.06;26.16;101053.84;5018399;28;97164;-76
2022/07/02 08:34:47;;;;;;;14.80;13.90;;;;;;;34.63;27.71;101052.19;5001389;28;97393;-76
2022/07/02 08:37:14;;;;;;;15.00;13.93;;;;;;;36.52;26.07;101063.31;5008287;28;101044;-74
2022/07/02 08:39:39;;;;;;;14.52;13.65;;;;;;;37.74;24.14;101065.81;5008716;28;97148;-75
2022/07/02 08:42:06;;;;;;;14.75;13.57;;;;;;;38.72;23.42;101062.13;5008710;28;96930;-73
2022/07/02 08:44:32;;;;;;;14.70;13.77;;;;;;;38.45;23.74;101059.50;5023870;28;98758;-75
2022/07/02 08:46:58;;;;;;;14.32;13.38;;;;;;;39.52;22.44;101056.06;4990974;28;100567;-75
2022/07/02 08:49:24;;;;;;;14.95;13.95;;;;;;;39.72;22.25;101053.97;5008099;28;97211;-90
2022/07/02 08:54:22;;;;;;;15.00;14.10;;;;;;;39.33;22.79;101058.78;5006494;28;100458;-84
2022/07/02 08:56:54;;;;;;;14.57;13.77;;;;;;;39.40;22.70;101055.97;5023290;28;97942;-90
2022/07/02 08:59:19;;;;;;;14.82;13.95;;;;;;;38.99;23.00;101062.81;4993557;28;97228;-85
2022/07/02 09:01:48;;;;;;;14.38;13.45;;;;;;;38.13;23.59;101057.72;5009443;28;97092;-82
2022/07/02 09:04:18;;;;;;;14.00;13.20;;;;;;;37.70;23.98;101060.97;5009728;28;101140;-86
2022/07/02 09:06:46;;;;;;;15.27;14.07;;;;;;;37.62;24.16;101053.00;5010143;28;97832;-82
2022/07/02 09:09:11;;;;;;;14.65;13.35;;;;;;;37.00;24.39;101047.69;5021053;28;96863;-76
2022/07/02 09:11:37;;;;;;;14.85;13.95;;;;;;;36.45;25.07;101041.41;5011076;28;96974;-76
2022/07/02 09:14:02;;;;;;;14.07;13.27;;;;;;;35.44;26.08;101054.66;5005612;28;98174;-88
2022/07/02 09:16:28;;;;;;;14.15;13.20;;;;;;;34.42;26.97;101051.06;5008876;28;97859;-85
2022/07/02 09:18:53;;;;;;;14.25;13.35;;;;;;;33.73;28.08;101056.78;5026202;28;97209;-86
2022/07/02 09:21:19;;;;;;;14.13;13.23;;;;;;;32.99;29.14;101056.59;5006932;28;96940;-85
2022/07/02 09:23:50;;;;;;;14.60;13.40;;;;;;;33.44;28.32;101057.56;5016269;28;97412;-82
2022/07/02 09:26:20;;;;;;;13.55;12.68;;;;;;;33.75;28.67;101041.13;4994928;28;99535;-84
2022/07/02 09:28:59;;;;;;;14.65;13.73;;;;;;;34.00;28.34;101043.56;4992371;28;96977;-81
2022/07/02 09:31:29;;;;;;;15.00;14.00;;;;;;;34.19;27.98;101039.47;4995746;28;97042;-82
2022/07/02 09:33:55;;;;;;;14.40;13.60;;;;;;;34.00;27.84;101027.22;4990848;28;101934;-85
2022/07/02 09:36:21;;;;;;;13.75;12.75;;;;;;;33.27;28.35;101045.97;5025969;28;97808;-85
2022/07/02 09:38:49;;;;;;;14.98;13.88;;;;;;;33.24;28.28;101059.94;5010475;28;97156;-84
2022/07/02 09:41:23;;;;;;;14.77;13.80;;;;;;;32.38;29.29;101050.94;5003884;28;97301;-84
2022/07/02 09:43:59;;;;;;;15.02;14.10;;;;;;;32.09;29.46;101050.75;4987185;28;100418;-84
2022/07/02 09:46:25;;;;;;;14.73;13.52;;;;;;;31.55;30.52;101052.19;5009904;28;98058;-82
2022/07/02 09:48:51;;;;;;;14.32;13.32;;;;;;;31.29;30.81;101051.50;5006590;28;96862;-82
2022/07/02 09:51:17;;;;;;;14.35;13.40;;;;;;;31.10;31.26;101045.41;5021771;28;97002;-83
2022/07/02 09:53:50;;;;;;;14.55;13.65;;;;;;;31.61;30.86;101057.94;5010399;28;101056;-79
2022/07/02 09:56:16;;;;;;;14.73;13.82;;;;;;;31.54;30.31;101046.94;4991327;28;101242;-83
2022/07/02 09:58:42;;;;;;;16.67;15.25;;;;;;;31.18;31.92;101052.66;5021932;28;97331;-88
2022/07/02 10:01:07;;;;;;;14.70;13.63;;;;;;;30.53;31.88;101058.81;5019457;28;96822;-85
2022/07/02 10:03:45;;;;;;;15.35;14.40;;;;;;;30.23;32.55;101042.13;5017010;28;98092;-84
2022/07/02 10:06:11;;;;;;;14.07;13.27;;;;;;;30.94;32.28;101039.13;5000600;28;98962;-87
